Terminal Aerodrome Forecast
Issued by NWS Wichita, KS

Home | Current Version | Previous Version | Text Only | Print | Product List | Glossary On
Versions: 1 2 3 4 5 6 7 8 9 10 11 12 13 14 15 16 17 18
000
FTUS43 KICT 011747
TAFICT
TAF
KICT 011747Z 0118/0218 17018G25KT P6SM SKC
     FM020200 17019G29KT P6SM BKN035 BKN120
     FM020600 17018G28KT P6SM BKN035 BKN120
     FM021100 02015G22KT P6SM SCT035 BKN120=

USA.gov is the U.S. government's official web portal to all federal, state and local government web resources and services.